Time;durP1;ratioP1;P1;durP2;ratioP2;P2;SDS_P1;SDS_P2;PMS_P1;PMS_P2;Temp;Humidity;BMP_temperature;BMP_pressure;BME280_temperature;BME280_humidity;BME280_pressure;Samples;Min_cycle;Max_cycle;Signal;HPM_P1;HPM_P2
2023/04/01 00:00:04;;;;;;;21.07;18.57;;;28.60;86.20;;;;;;1905275;74;21151;-79
2023/04/01 00:02:38;;;;;;;20.25;17.87;;;28.60;85.80;;;;;;1904880;73;21115;-80
2023/04/01 00:05:16;;;;;;;20.02;17.52;;;28.70;86.80;;;;;;1909901;74;21170;-80
2023/04/01 00:07:42;;;;;;;22.25;18.15;;;28.60;87.00;;;;;;1923897;73;21136;-80
2023/04/01 00:10:15;;;;;;;20.70;17.52;;;28.60;86.60;;;;;;1917160;73;21118;-81
2023/04/01 00:12:46;;;;;;;21.05;18.85;;;28.60;87.00;;;;;;1930615;73;21174;-79
2023/04/01 00:15:17;;;;;;;23.87;19.10;;;28.60;87.10;;;;;;1916352;73;21665;-80
2023/04/01 00:17:49;;;;;;;27.35;20.43;;;28.70;86.90;;;;;;1903803;74;21101;-80
2023/04/01 00:20:21;;;;;;;27.25;20.60;;;28.70;87.30;;;;;;1908322;73;21120;-80
2023/04/01 00:22:52;;;;;;;28.55;20.10;;;28.70;86.30;;;;;;1930389;73;21109;-79
2023/04/01 00:25:23;;;;;;;26.55;20.25;;;28.70;86.80;;;;;;1912698;73;21190;-80
2023/04/01 00:27:55;;;;;;;27.27;20.02;;;28.70;87.30;;;;;;1918131;73;21894;-80
2023/04/01 00:30:26;;;;;;;26.10;20.57;;;28.80;87.30;;;;;;1917717;73;21986;-80
2023/04/01 00:32:58;;;;;;;23.65;20.77;;;28.80;87.60;;;;;;1914051;73;21128;-81
2023/04/01 00:35:29;;;;;;;27.73;21.15;;;28.80;87.30;;;;;;1906986;74;21190;-80
2023/04/01 00:38:01;;;;;;;29.23;21.30;;;28.80;88.00;;;;;;1910246;74;21400;-80
2023/04/01 00:40:35;;;;;;;28.95;20.85;;;28.80;88.00;;;;;;1901704;73;21276;-74
2023/04/01 00:43:11;;;;;;;27.50;22.45;;;28.90;87.60;;;;;;1905976;73;21918;-73
2023/04/01 00:45:44;;;;;;;34.88;22.67;;;28.90;88.20;;;;;;1898471;74;21489;-73
2023/04/01 00:48:18;;;;;;;30.92;22.05;;;29.00;88.30;;;;;;1905552;73;21820;-74
2023/04/01 00:50:51;;;;;;;28.45;24.65;;;29.00;87.90;;;;;;1910495;74;21169;-74
2023/04/01 00:53:23;;;;;;;28.35;23.38;;;29.00;88.60;;;;;;1907761;73;21264;-72
2023/04/01 00:56:00;;;;;;;33.58;23.52;;;29.00;88.00;;;;;;1895422;74;21130;-73
2023/04/01 00:58:31;;;;;;;;;;;29.00;88.40;;;;;;1814364;79;21452;-73
2023/04/01 01:01:03;;;;;;;32.85;23.90;;;29.00;86.90;;;;;;1849933;76;20637;-74
2023/04/01 01:03:34;;;;;;;34.18;24.57;;;29.10;88.80;;;;;;1902584;73;21349;-73
2023/04/01 01:06:22;;;;;;;31.70;25.70;;;29.10;87.70;;;;;;1909551;74;21571;-74
2023/04/01 01:09:21;;;;;;;37.98;26.20;;;29.10;88.10;;;;;;1889525;74;21403;-73
2023/04/01 01:12:13;;;;;;;36.15;25.65;;;29.20;87.40;;;;;;1915866;73;21119;-73
2023/04/01 01:14:53;;;;;;;34.33;26.52;;;29.20;86.80;;;;;;1839942;78;21169;-72
2023/04/01 01:17:39;;;;;;;39.70;27.05;;;29.20;86.20;;;;;;1906308;74;21128;-75
2023/04/01 01:20:43;;;;;;;38.00;28.23;;;29.30;86.40;;;;;;1876644;74;21122;-72
2023/04/01 01:23:25;;;;;;;33.92;25.92;;;29.30;86.50;;;;;;1921319;73;21104;-72
2023/04/01 01:26:14;;;;;;;36.23;26.80;;;29.30;87.00;;;;;;1906330;73;21218;-73
2023/04/01 01:28:47;;;;;;;37.65;26.97;;;29.30;86.80;;;;;;1919627;73;21159;-73
2023/04/01 01:31:33;;;;;;;42.30;28.98;;;29.40;86.80;;;;;;1931068;73;21119;-74
2023/04/01 01:34:21;;;;;;;33.60;27.27;;;29.40;86.20;;;;;;1913105;74;21135;-72
2023/04/01 01:36:55;;;;;;;31.75;26.80;;;29.50;86.40;;;;;;1855687;74;21167;-71
2023/04/01 01:39:29;;;;;;;32.03;27.75;;;29.60;85.60;;;;;;1917679;74;21209;-73
2023/04/01 01:42:05;;;;;;;37.30;28.30;;;29.70;85.80;;;;;;1895243;73;21117;-72
2023/04/01 01:44:41;;;;;;;33.33;28.27;;;29.70;85.60;;;;;;1885301;74;21798;-75
2023/04/01 01:47:13;;;;;;;37.28;28.95;;;29.80;85.20;;;;;;1900112;74;21390;-74
2023/04/01 01:49:46;;;;;;;32.03;28.47;;;29.90;84.40;;;;;;1875082;74;21212;-74
2023/04/01 01:52:19;;;;;;;36.58;30.08;;;29.90;84.40;;;;;;1876941;76;21139;-74
2023/04/01 01:54:52;;;;;;;37.67;30.37;;;29.90;84.60;;;;;;1929561;74;21171;-73
2023/04/01 01:57:25;;;;;;;34.58;28.00;;;30.00;84.60;;;;;;1885489;74;21185;-73
2023/04/01 01:59:59;;;;;;;36.77;28.92;;;30.00;84.60;;;;;;1919030;74;21249;-73
2023/04/01 02:02:32;;;;;;;34.08;29.35;;;30.10;84.60;;;;;;1897860;74;21184;-74
2023/04/01 02:05:06;;;;;;;35.63;30.05;;;30.20;84.60;;;;;;1894202;74;21612;-74
2023/04/01 02:07:40;;;;;;;40.00;30.35;;;30.30;84.80;;;;;;1889577;76;21176;-72
2023/04/01 02:10:12;;;;;;;38.53;30.10;;;30.40;84.40;;;;;;1891263;75;21123;-73
2023/04/01 02:12:45;;;;;;;40.40;30.57;;;30.50;83.20;;;;;;1882358;74;22468;-72
2023/04/01 02:15:19;;;;;;;39.45;30.65;;;30.50;82.80;;;;;;1886407;75;21140;-74
2023/04/01 02:17:51;;;;;;;38.10;30.12;;;30.60;83.00;;;;;;1935257;74;21135;-74
2023/04/01 02:20:25;;;;;;;41.50;30.20;;;30.70;82.40;;;;;;1935351;74;21159;-73
2023/04/01 02:22:59;;;;;;;32.65;28.92;;;30.80;82.50;;;;;;1929172;74;21143;-74
2023/04/01 02:25:33;;;;;;;35.48;30.30;;;30.90;82.50;;;;;;1894661;74;21115;-73
2023/04/01 02:28:07;;;;;;;33.60;29.07;;;30.90;82.70;;;;;;1883359;74;21940;-74
2023/04/01 02:30:40;;;;;;;33.83;30.15;;;31.00;81.00;;;;;;1880690;76;21520;-73
2023/04/01 02:33:12;;;;;;;38.00;29.77;;;31.20;80.80;;;;;;1878051;75;21102;-72
2023/04/01 02:35:44;;;;;;;38.98;31.95;;;31.20;80.50;;;;;;1905458;74;21407;-72
2023/04/01 02:38:15;;;;;;;35.85;30.15;;;31.30;79.90;;;;;;1930401;74;21575;-75
2023/04/01 02:40:48;;;;;;;34.43;28.25;;;31.40;79.50;;;;;;1918793;73;21416;-75
2023/04/01 02:43:21;;;;;;;32.63;29.15;;;31.50;78.90;;;;;;1922718;73;21521;-73
2023/04/01 02:45:52;;;;;;;35.92;28.45;;;31.70;78.00;;;;;;1899671;74;21116;-73
2023/04/01 02:48:23;;;;;;;35.70;30.75;;;31.70;78.50;;;;;;1904035;75;21909;-73
2023/04/01 02:50:54;;;;;;;35.15;28.83;;;31.80;78.30;;;;;;1904033;75;21124;-74
2023/04/01 02:53:25;;;;;;;35.05;27.75;;;31.90;77.50;;;;;;1895025;73;21102;-75
2023/04/01 02:55:56;;;;;;;34.95;27.65;;;32.10;76.90;;;;;;1905793;74;21124;-74
2023/04/01 02:58:28;;;;;;;31.27;27.87;;;32.10;75.80;;;;;;1879086;76;21123;-74
2023/04/01 03:00:59;;;;;;;31.42;27.98;;;32.20;76.00;;;;;;1878741;76;21268;-74
2023/04/01 03:03:30;;;;;;;43.90;30.48;;;32.30;75.50;;;;;;1892955;73;21135;-75
2023/04/01 03:08:56;;;;;;;32.80;28.98;;;32.50;73.60;;;;;;1814030;77;21195;-73
2023/04/01 03:11:28;;;;;;;35.20;28.60;;;32.60;72.10;;;;;;1814055;79;21191;-74
2023/04/01 03:13:59;;;;;;;38.42;28.05;;;32.70;72.80;;;;;;1795080;79;21197;-74
2023/04/01 03:16:30;;;;;;;30.32;27.20;;;32.80;73.00;;;;;;1818902;77;21151;-74
2023/04/01 03:19:02;;;;;;;35.05;28.02;;;32.90;72.00;;;;;;1838426;77;21992;-73
2023/04/01 03:21:33;;;;;;;34.48;28.60;;;33.00;72.30;;;;;;1813219;79;21133;-74
2023/04/01 03:24:05;;;;;;;33.15;27.52;;;33.10;71.30;;;;;;1813505;77;21595;-73
2023/04/01 03:26:36;;;;;;;30.75;27.55;;;33.10;71.30;;;;;;1813457;78;21143;-74
2023/04/01 03:29:08;;;;;;;40.03;30.95;;;33.20;70.50;;;;;;1813967;78;21418;-73
2023/04/01 03:31:40;;;;;;;43.60;37.90;;;33.30;70.30;;;;;;1815939;77;21642;-74
2023/04/01 03:34:11;;;;;;;34.55;29.87;;;33.40;70.00;;;;;;1816720;77;21119;-74
2023/04/01 03:36:42;;;;;;;30.88;27.60;;;33.50;69.80;;;;;;1816620;77;21582;-73
2023/04/01 03:39:13;;;;;;;31.35;27.95;;;33.60;67.80;;;;;;1817944;77;21143;-74
2023/04/01 03:41:45;;;;;;;30.90;26.50;;;33.60;68.30;;;;;;1833234;77;21794;-74
2023/04/01 03:44:16;;;;;;;31.25;27.80;;;33.70;67.10;;;;;;1831969;77;21143;-74
2023/04/01 03:46:48;;;;;;;35.23;27.13;;;33.80;67.80;;;;;;1784656;78;21834;-75
2023/04/01 03:49:19;;;;;;;42.83;29.45;;;33.80;66.20;;;;;;1820989;77;21144;-74
2023/04/01 03:51:50;;;;;;;31.75;27.17;;;33.80;66.00;;;;;;1813985;79;21144;-73
2023/04/01 03:54:23;;;;;;;32.90;26.77;;;33.90;66.20;;;;;;1813062;79;22031;-72
2023/04/01 03:56:55;;;;;;;31.95;26.77;;;34.00;66.70;;;;;;1805586;79;21139;-73
2023/04/01 03:59:26;;;;;;;30.25;26.45;;;34.00;66.90;;;;;;1812431;79;21156;-74
2023/04/01 04:01:57;;;;;;;30.30;26.82;;;34.10;66.70;;;;;;1816832;77;21421;-73
2023/04/01 04:04:29;;;;;;;31.65;26.77;;;34.10;67.30;;;;;;1845432;77;21397;-74
2023/04/01 04:07:01;;;;;;;35.88;25.25;;;34.10;66.00;;;;;;1817443;77;21309;-75
2023/04/01 04:09:35;;;;;;;30.08;24.90;;;34.20;65.00;;;;;;1836245;76;21143;-74
2023/04/01 04:12:07;;;;;;;38.53;29.37;;;34.20;65.00;;;;;;1836433;77;21535;-75
2023/04/01 04:14:38;;;;;;;30.25;25.48;;;34.30;65.00;;;;;;1829746;77;21455;-74
2023/04/01 04:17:15;;;;;;;28.55;25.65;;;34.40;64.60;;;;;;1806894;77;21671;-74
2023/04/01 04:19:43;;;;;;;29.23;24.77;;;34.50;64.90;;;;;;1791442;78;21129;-75
2023/04/01 04:22:14;;;;;;;30.32;25.17;;;34.50;65.30;;;;;;1813551;79;21674;-75
2023/04/01 04:24:45;;;;;;;33.00;27.27;;;34.50;64.20;;;;;;1820988;77;21202;-73
2023/04/01 04:27:16;;;;;;;28.00;25.10;;;34.50;64.50;;;;;;1805624;77;21705;-74
2023/04/01 04:29:48;;;;;;;29.75;24.70;;;34.50;64.10;;;;;;1813789;79;21151;-73
2023/04/01 04:32:19;;;;;;;33.95;28.65;;;34.50;64.40;;;;;;1814124;79;21261;-74
2023/04/01 04:34:50;;;;;;;41.42;28.73;;;34.60;64.30;;;;;;1800849;78;21235;-73
2023/04/01 04:37:21;;;;;;;32.83;23.87;;;34.70;63.30;;;;;;1832523;77;21143;-74
2023/04/01 04:39:54;;;;;;;30.17;23.60;;;34.70;62.40;;;;;;1814955;77;21379;-74
2023/04/01 04:42:25;;;;;;;30.95;23.92;;;34.70;63.10;;;;;;1816039;77;21167;-74
2023/04/01 04:44:57;;;;;;;34.03;27.42;;;34.70;63.70;;;;;;1817416;77;21648;-75
2023/04/01 04:47:28;;;;;;;26.42;23.40;;;34.70;63.50;;;;;;1815651;77;21244;-75
2023/04/01 04:49:59;;;;;;;26.73;23.95;;;34.80;63.00;;;;;;1795155;79;21176;-75
2023/04/01 04:52:30;;;;;;;26.82;21.52;;;34.90;62.70;;;;;;1817801;77;21140;-74
2023/04/01 04:55:01;;;;;;;26.27;21.80;;;34.90;62.40;;;;;;1818156;77;21259;-73
2023/04/01 04:57:33;;;;;;;23.77;20.23;;;35.00;60.90;;;;;;1822737;77;21185;-74
2023/04/01 05:00:05;;;;;;;24.52;21.25;;;35.00;60.90;;;;;;1848851;77;21123;-74
2023/04/01 05:02:36;;;;;;;32.20;21.30;;;35.00;60.90;;;;;;1823577;77;21140;-73
2023/04/01 05:05:08;;;;;;;22.95;20.15;;;35.10;61.00;;;;;;1785135;80;21796;-73
2023/04/01 05:07:39;;;;;;;22.98;20.65;;;35.20;60.80;;;;;;1804684;77;21742;-73
2023/04/01 05:10:11;;;;;;;22.98;20.45;;;35.20;60.00;;;;;;1850449;77;21220;-73
2023/04/01 05:12:42;;;;;;;22.65;20.20;;;35.40;69.50;;;;;;1847279;76;21147;-73
2023/04/01 05:15:14;;;;;;;22.27;19.98;;;35.40;61.10;;;;;;1855192;76;21702;-73
2023/04/01 05:17:46;;;;;;;26.50;20.57;;;35.50;61.20;;;;;;1856072;76;21139;-72
2023/04/01 05:20:19;;;;;;;24.43;21.80;;;35.60;70.50;;;;;;1866904;76;21112;-73
2023/04/01 05:22:49;;;;;;;28.77;22.90;;;35.60;65.10;;;;;;1863961;76;21175;-74
2023/04/01 05:25:21;;;;;;;23.87;21.00;;;35.60;71.30;;;;;;1861343;76;21845;-75
2023/04/01 05:27:52;;;;;;;21.70;19.40;;;35.70;76.70;;;;;;1857849;76;21273;-74
2023/04/01 05:30:24;;;;;;;28.42;20.37;;;36.20;79.80;;;;;;1871176;76;21208;-74
2023/04/01 05:33:16;;;;;;;23.87;19.98;;;35.70;73.90;;;;;;1856839;76;21189;-74
2023/04/01 05:35:47;;;;;;;22.25;19.95;;;35.80;73.70;;;;;;1787098;78;21233;-74
2023/04/01 05:38:19;;;;;;;22.25;19.95;;;35.80;61.40;;;;;;1883990;76;21122;-75
2023/04/01 05:40:50;;;;;;;25.00;20.12;;;33.60;56.70;;;;;;1874264;74;21278;-75
2023/04/01 05:43:21;;;;;;;22.98;19.45;;;35.80;58.00;;;;;;1832848;76;21119;-76
2023/04/01 05:45:53;;;;;;;29.12;19.50;;;35.80;58.20;;;;;;1875065;75;21215;-73
2023/04/01 05:48:25;;;;;;;27.82;20.97;;;35.90;58.70;;;;;;1860827;76;21540;-74
2023/04/01 05:50:56;;;;;;;30.08;19.70;;;36.00;57.90;;;;;;1893229;75;21150;-75
2023/04/01 05:53:27;;;;;;;22.65;19.50;;;36.00;59.20;;;;;;1899189;75;21648;-73
2023/04/01 05:56:00;;;;;;;23.40;20.77;;;36.00;56.60;;;;;;1883904;75;22010;-74
2023/04/01 05:58:31;;;;;;;22.17;19.60;;;36.10;56.90;;;;;;1863593;76;21158;-73
2023/04/01 06:01:04;;;;;;;48.50;22.35;;;36.10;55.90;;;;;;1863871;74;21449;-74
2023/04/01 06:03:37;;;;;;;23.15;20.45;;;36.10;55.90;;;;;;1870542;75;22067;-74
2023/04/01 06:06:17;;;;;;;22.48;19.95;;;36.20;56.20;;;;;;1868876;75;21133;-74
2023/04/01 06:08:49;;;;;;;33.05;22.05;;;36.20;55.70;;;;;;1871018;74;21165;-74
2023/04/01 06:11:40;;;;;;;22.52;20.10;;;36.20;56.00;;;;;;1870400;76;21606;-72
2023/04/01 06:14:30;;;;;;;22.10;19.27;;;36.10;55.70;;;;;;1870981;75;22044;-73
2023/04/01 06:17:09;;;;;;;20.55;18.45;;;36.10;55.70;;;;;;1851196;75;21126;-74
2023/04/01 06:19:58;;;;;;;20.88;18.77;;;36.10;56.10;;;;;;1864199;75;21102;-73
2023/04/01 06:22:43;;;;;;;21.17;18.92;;;36.10;55.60;;;;;;1871040;75;21130;-73
2023/04/01 06:25:41;;;;;;;21.33;19.23;;;36.20;56.40;;;;;;1869924;76;21390;-73
2023/04/01 06:28:42;;;;;;;21.07;18.98;;;36.20;54.40;;;;;;1860384;77;21490;-74
2023/04/01 06:31:18;;;;;;;21.10;19.00;;;36.20;54.80;;;;;;1774226;77;21261;-75
2023/04/01 06:34:05;;;;;;;21.93;19.48;;;36.10;55.20;;;;;;1859038;75;21127;-73
2023/04/01 06:37:00;;;;;;;36.53;21.37;;;36.20;54.10;;;;;;1817710;77;21162;-74
2023/04/01 06:39:36;;;;;;;22.42;19.98;;;36.30;54.60;;;;;;1864119;76;21646;-74
2023/04/01 06:42:13;;;;;;;23.10;20.75;;;36.30;53.70;;;;;;1858028;76;21228;-74
2023/04/01 06:45:03;;;;;;;22.85;20.45;;;36.30;54.50;;;;;;1866217;76;21593;-74
2023/04/01 06:48:02;;;;;;;22.25;19.92;;;36.40;53.40;;;;;;1858631;76;21154;-75
2023/04/01 06:50:52;;;;;;;25.00;20.65;;;36.40;53.00;;;;;;1866905;76;21204;-72
2023/04/01 06:53:41;;;;;;;25.10;20.95;;;36.50;52.00;;;;;;1832424;76;21179;-72
2023/04/01 06:56:14;;;;;;;21.75;19.75;;;36.60;51.70;;;;;;1799553;77;21646;-73
2023/04/01 06:58:51;;;;;;;23.92;21.52;;;36.50;51.80;;;;;;1859004;77;21160;-72
2023/04/01 07:01:24;;;;;;;27.62;20.57;;;36.60;52.20;;;;;;1845289;77;21192;-73
2023/04/01 07:04:17;;;;;;;29.55;20.65;;;36.70;51.50;;;;;;1883029;75;21424;-74
2023/04/01 07:06:51;;;;;;;21.12;19.02;;;36.60;51.80;;;;;;1843783;76;22031;-71
2023/04/01 07:09:25;;;;;;;33.50;22.40;;;36.70;52.10;;;;;;1869723;76;21452;-72
2023/04/01 07:11:58;;;;;;;23.32;18.25;;;36.70;52.80;;;;;;1869009;76;21122;-71
2023/04/01 07:14:40;;;;;;;23.95;19.73;;;36.70;51.60;;;;;;1861031;75;21212;-71
2023/04/01 07:17:26;;;;;;;24.43;19.95;;;36.60;51.60;;;;;;1872670;76;21113;-71
2023/04/01 07:20:09;;;;;;;21.82;19.32;;;36.60;51.30;;;;;;1871816;76;21242;-71
2023/04/01 07:22:46;;;;;;;23.20;19.82;;;36.60;51.30;;;;;;1853716;76;21232;-72
2023/04/01 07:25:25;;;;;;;23.92;19.75;;;36.50;52.30;;;;;;1845788;77;21529;-71
2023/04/01 07:28:01;;;;;;;22.05;19.77;;;36.50;53.10;;;;;;1816824;77;21133;-71
2023/04/01 07:34:00;;;;;;;22.07;19.85;;;36.50;53.30;;;;;;1897706;73;21243;-73
2023/04/01 07:37:01;;;;;;;30.45;19.75;;;36.40;52.40;;;;;;1900832;74;21118;-71
2023/04/01 07:40:08;;;;;;;21.27;19.00;;;36.40;52.90;;;;;;1877447;76;21134;-71
2023/04/01 07:43:00;;;;;;;22.17;19.17;;;36.40;52.10;;;;;;1877858;76;21999;-72
2023/04/01 07:45:36;;;;;;;23.87;20.35;;;36.40;53.60;;;;;;1898973;74;21586;-70
2023/04/01 07:48:16;;;;;;;22.55;20.27;;;36.40;52.50;;;;;;1937090;74;21710;-71
2023/04/01 07:50:49;;;;;;;22.32;19.23;;;36.40;52.40;;;;;;1922682;74;21562;-72
2023/04/01 07:53:24;;;;;;;32.80;21.77;;;36.40;51.00;;;;;;1906592;75;21923;-71
2023/04/01 07:56:07;;;;;;;39.75;21.57;;;36.40;51.80;;;;;;1879624;74;21134;-71
2023/04/01 07:58:51;;;;;;;24.07;20.30;;;36.40;51.90;;;;;;1878059;76;21142;-72
2023/04/01 08:01:33;;;;;;;24.77;22.07;;;36.40;51.20;;;;;;1880827;75;21130;-74
2023/04/01 08:04:25;;;;;;;21.90;19.23;;;36.40;51.70;;;;;;1889289;74;21126;-73
2023/04/01 08:07:01;;;;;;;21.48;19.17;;;36.40;50.20;;;;;;1892851;75;21586;-72
2023/04/01 08:09:48;;;;;;;21.73;19.48;;;36.50;50.40;;;;;;1918712;74;21145;-72
2023/04/01 08:12:50;;;;;;;21.10;18.92;;;36.50;49.70;;;;;;1912777;74;21992;-73
2023/04/01 08:15:32;;;;;;;22.58;20.15;;;36.40;50.60;;;;;;1943613;73;21447;-69
2023/04/01 08:18:29;;;;;;;23.15;20.68;;;36.50;50.60;;;;;;1925420;73;21385;-72
2023/04/01 08:21:09;;;;;;;23.30;19.48;;;36.50;50.40;;;;;;1909285;73;21143;-73
2023/04/01 08:23:47;;;;;;;21.62;19.35;;;36.50;49.70;;;;;;1910555;73;21567;-73
2023/04/01 08:26:30;;;;;;;21.45;19.00;;;36.50;50.50;;;;;;1916047;74;21386;-73
2023/04/01 08:29:12;;;;;;;22.02;19.73;;;36.50;51.00;;;;;;1911532;74;21140;-73
2023/04/01 08:31:46;;;;;;;22.25;19.82;;;36.50;51.80;;;;;;1910295;74;21195;-73
2023/04/01 08:34:23;;;;;;;24.05;20.00;;;36.50;52.20;;;;;;1904785;75;21145;-74
2023/04/01 08:37:21;;;;;;;21.05;18.73;;;36.40;51.70;;;;;;1911355;74;21117;-72
2023/04/01 08:40:16;;;;;;;23.73;18.35;;;36.40;52.00;;;;;;1900047;73;21364;-72
2023/04/01 08:42:57;;;;;;;47.35;21.07;;;36.40;51.60;;;;;;1901776;74;21110;-73
2023/04/01 08:45:55;;;;;;;21.30;18.77;;;36.40;51.10;;;;;;1902753;75;21672;-74
2023/04/01 08:48:50;;;;;;;20.85;18.77;;;36.40;51.90;;;;;;1911200;75;21176;-74
2023/04/01 08:51:26;;;;;;;25.88;23.18;;;36.40;52.60;;;;;;1848110;75;21135;-74
2023/04/01 08:54:06;;;;;;;26.37;23.83;;;36.30;52.80;;;;;;1888654;75;21114;-74
2023/04/01 08:56:58;;;;;;;21.35;19.15;;;36.30;53.10;;;;;;1890523;74;21376;-73
2023/04/01 08:59:31;;;;;;;21.30;19.20;;;36.30;52.70;;;;;;1893353;75;21641;-74
2023/04/01 09:02:08;;;;;;;20.85;18.70;;;36.40;52.60;;;;;;1909745;74;21141;-74
2023/04/01 09:04:58;;;;;;;26.97;24.02;;;36.30;53.00;;;;;;1909185;74;21146;-74
2023/04/01 09:07:56;;;;;;;21.27;19.00;;;36.20;52.30;;;;;;1911801;74;21166;-74
2023/04/01 09:10:49;;;;;;;26.10;19.75;;;36.20;53.00;;;;;;1845340;75;21205;-74
2023/04/01 09:13:34;;;;;;;20.92;18.75;;;36.20;53.90;;;;;;1894481;74;21094;-76
2023/04/01 09:16:08;;;;;;;20.80;18.77;;;36.10;53.70;;;;;;1902244;74;21099;-74
2023/04/01 09:18:57;;;;;;;20.72;18.75;;;36.10;53.90;;;;;;1891094;74;21121;-73
2023/04/01 09:21:43;;;;;;;21.62;19.52;;;36.10;53.60;;;;;;1926278;73;21125;-75
2023/04/01 09:24:34;;;;;;;23.95;19.12;;;36.10;53.80;;;;;;1913062;74;21467;-74
2023/04/01 09:27:14;;;;;;;21.25;19.17;;;36.10;52.70;;;;;;1944108;74;21067;-76
2023/04/01 09:32:49;;;;;;;22.50;20.12;;;36.00;52.20;;;;;;1800144;75;21429;-73
2023/04/01 09:35:26;;;;;;;21.27;19.07;;;36.00;53.10;;;;;;1866052;76;21476;-74
2023/04/01 09:38:02;;;;;;;27.20;20.00;;;36.00;53.80;;;;;;1882454;75;21987;-74
2023/04/01 09:41:06;;;;;;;22.15;19.80;;;36.00;54.20;;;;;;1836486;77;21138;-74
2023/04/01 09:44:01;;;;;;;22.95;20.25;;;36.00;54.20;;;;;;1862828;75;21154;-74
2023/04/01 09:46:57;;;;;;;22.42;20.08;;;36.00;54.30;;;;;;1831734;78;21192;-74
2023/04/01 09:49:53;;;;;;;20.88;18.85;;;35.90;52.90;;;;;;1843977;77;21145;-76
2023/04/01 09:52:45;;;;;;;21.45;19.07;;;35.90;55.60;;;;;;1856485;75;21099;-75
2023/04/01 09:55:22;;;;;;;26.97;19.37;;;35.90;56.90;;;;;;1855213;77;21185;-75
2023/04/01 09:58:10;;;;;;;22.22;18.25;;;35.90;58.90;;;;;;1839432;77;21251;-75
2023/04/01 10:00:53;;;;;;;20.17;17.90;;;35.80;58.60;;;;;;1853529;76;21493;-74
2023/04/01 10:03:51;;;;;;;26.20;19.32;;;35.70;59.00;;;;;;1851907;76;21141;-75
2023/04/01 10:06:36;;;;;;;26.87;19.30;;;35.70;59.40;;;;;;1843437;75;21209;-74
2023/04/01 10:09:44;;;;;;;23.92;20.08;;;35.60;59.70;;;;;;1870410;75;21083;-75
2023/04/01 10:12:39;;;;;;;29.63;18.80;;;35.50;59.30;;;;;;1751989;81;21086;-73
2023/04/01 10:15:18;;;;;;;22.85;20.25;;;35.40;59.10;;;;;;1770839;80;21224;-76
2023/04/01 10:18:04;;;;;;;25.45;19.92;;;35.40;59.30;;;;;;1778656;79;21221;-75
2023/04/01 10:20:58;;;;;;;21.93;19.35;;;35.30;59.20;;;;;;1769299;79;21194;-74
2023/04/01 10:23:40;;;;;;;21.45;19.10;;;35.30;59.90;;;;;;1801027;75;21299;-74
2023/04/01 10:26:22;;;;;;;22.10;19.80;;;35.30;60.40;;;;;;1856038;75;21151;-76
2023/04/01 10:29:13;;;;;;;24.47;19.67;;;35.20;60.00;;;;;;1797445;75;21219;-75
2023/04/01 10:32:07;;;;;;;24.12;19.40;;;35.20;60.50;;;;;;1820928;78;21240;-74
2023/04/01 10:35:13;;;;;;;21.12;18.80;;;35.20;59.80;;;;;;1819935;77;21383;-76
2023/04/01 10:38:15;;;;;;;22.58;20.15;;;35.20;60.40;;;;;;1824554;78;21537;-75
2023/04/01 10:41:16;;;;;;;21.25;19.35;;;35.10;60.40;;;;;;1827301;76;21996;-75
2023/04/01 10:43:49;;;;;;;21.90;19.65;;;35.10;61.30;;;;;;1834066;78;21149;-75
2023/04/01 10:46:48;;;;;;;21.97;19.10;;;35.00;61.90;;;;;;1833414;77;21104;-76
2023/04/01 10:49:42;;;;;;;27.82;19.70;;;34.90;61.70;;;;;;1808875;76;21195;-75
2023/04/01 10:52:37;;;;;;;22.00;19.73;;;34.90;61.80;;;;;;1842681;76;21128;-76
2023/04/01 10:55:38;;;;;;;26.60;20.90;;;34.90;61.40;;;;;;1788991;78;21185;-74
2023/04/01 10:58:27;;;;;;;25.00;20.37;;;34.80;61.10;;;;;;1806144;77;21185;-75
2023/04/01 11:01:23;;;;;;;27.67;19.80;;;34.90;61.10;;;;;;1820142;76;21102;-75
2023/04/01 11:04:30;;;;;;;23.40;19.55;;;34.80;61.10;;;;;;1827880;76;21883;-74
2023/04/01 11:07:20;;;;;;;26.12;20.37;;;34.80;61.10;;;;;;1819836;77;21132;-75
2023/04/01 11:10:05;;;;;;;26.57;19.62;;;34.80;60.90;;;;;;1836050;76;21144;-75
2023/04/01 11:12:57;;;;;;;25.43;19.70;;;34.80;61.30;;;;;;1823675;76;21402;-76
2023/04/01 11:15:39;;;;;;;24.40;19.23;;;34.70;61.40;;;;;;1831045;76;21212;-74
2023/04/01 11:18:30;;;;;;;26.05;20.23;;;34.70;61.60;;;;;;1814419;76;21199;-74
2023/04/01 11:21:06;;;;;;;22.22;19.77;;;34.60;61.30;;;;;;1785298;80;21911;-75
2023/04/01 11:24:10;;;;;;;21.95;19.75;;;34.70;61.50;;;;;;1796979;77;21271;-75
2023/04/01 11:26:53;;;;;;;23.67;20.08;;;34.60;61.60;;;;;;1830783;77;21394;-74
2023/04/01 11:29:32;;;;;;;23.32;20.82;;;34.50;61.70;;;;;;1842982;76;21109;-75
2023/04/01 11:32:10;;;;;;;24.40;20.77;;;34.50;61.70;;;;;;1861102;75;21199;-75
2023/04/01 11:35:04;;;;;;;29.35;21.87;;;34.50;62.20;;;;;;1812958;77;21455;-75
2023/04/01 11:37:53;;;;;;;22.05;19.67;;;34.50;62.20;;;;;;1825160;78;21408;-74
2023/04/01 11:40:49;;;;;;;26.50;21.50;;;34.50;63.50;;;;;;1857570;76;21618;-77
2023/04/01 11:43:35;;;;;;;26.00;22.45;;;34.40;62.90;;;;;;1836142;78;21152;-75
2023/04/01 11:49:26;;;;;;;24.37;20.65;;;34.30;63.00;;;;;;1854875;76;21388;-75
2023/04/01 11:52:03;;;;;;;27.42;21.97;;;34.30;62.70;;;;;;1842864;77;21192;-74
2023/04/01 11:54:34;;;;;;;;;;;34.30;62.50;;;;;;1840771;77;21162;-74
2023/04/01 11:57:27;;;;;;;33.60;24.80;;;34.30;62.50;;;;;;1809055;79;20186;-75
2023/04/01 12:00:02;;;;;;;30.52;25.15;;;34.30;62.80;;;;;;1844147;77;21147;-75
2023/04/01 12:02:38;;;;;;;27.93;24.10;;;34.30;63.40;;;;;;1851159;76;21386;-76
2023/04/01 12:05:21;;;;;;;28.38;23.00;;;34.20;63.50;;;;;;1829943;77;21181;-74
2023/04/01 12:08:18;;;;;;;28.47;24.32;;;34.20;63.70;;;;;;1836833;76;21151;-76
2023/04/01 12:11:06;;;;;;;28.50;25.37;;;34.10;63.60;;;;;;1857304;76;21596;-76
2023/04/01 12:13:46;;;;;;;32.28;24.20;;;34.10;63.90;;;;;;1845710;76;21197;-75
2023/04/01 12:16:25;;;;;;;31.37;24.70;;;34.10;64.00;;;;;;1796801;78;21371;-73
2023/04/01 12:18:59;;;;;;;36.35;26.80;;;34.00;64.10;;;;;;1746457;80;21574;-76
2023/04/01 12:21:44;;;;;;;33.73;25.48;;;34.00;64.20;;;;;;1809516;76;21150;-76
2023/04/01 12:24:50;;;;;;;32.27;25.93;;;34.00;64.30;;;;;;1868819;76;21131;-76
2023/04/01 12:27:38;;;;;;;;;;;34.00;64.50;;;;;;1844286;76;21139;-74
2023/04/01 12:30:37;;;;;;;35.60;26.10;;;33.90;64.30;;;;;;1845245;76;20301;-78
2023/04/01 12:33:26;;;;;;;34.40;26.40;;;34.00;64.50;;;;;;1847254;76;21445;-76
2023/04/01 12:36:02;;;;;;;34.13;27.05;;;33.90;64.50;;;;;;1841652;76;21197;-76
2023/04/01 12:38:36;;;;;;;35.10;31.35;;;33.90;64.70;;;;;;1843051;76;21361;-78
2023/04/01 12:41:25;;;;;;;36.15;30.27;;;33.90;64.60;;;;;;1844075;76;21134;-76
2023/04/01 12:44:08;;;;;;;34.18;27.65;;;33.90;64.80;;;;;;1845774;76;21696;-76
2023/04/01 12:47:00;;;;;;;36.13;27.80;;;33.80;64.90;;;;;;1844732;76;21095;-74
2023/04/01 12:49:37;;;;;;;36.55;29.48;;;33.80;64.90;;;;;;1854711;76;21151;-78
2023/04/01 12:52:22;;;;;;;36.23;27.15;;;33.80;65.10;;;;;;1856795;76;21111;-77
2023/04/01 12:55:12;;;;;;;37.63;27.90;;;33.70;65.20;;;;;;1841398;76;21135;-75
2023/04/01 12:58:20;;;;;;;33.67;26.73;;;33.70;65.50;;;;;;1868219;76;21127;-75
2023/04/01 13:00:51;;;;;;;;;;;33.70;65.80;;;;;;1855731;76;21463;-77
2023/04/01 13:03:50;;;;;;;33.08;26.75;;;33.70;65.30;;;;;;1842240;76;20576;-75
2023/04/01 13:06:33;;;;;;;38.63;27.42;;;33.70;66.70;;;;;;1826077;77;21653;-75
2023/04/01 13:09:25;;;;;;;33.45;26.30;;;33.70;65.50;;;;;;1807989;79;21125;-75
2023/04/01 13:12:26;;;;;;;36.75;27.52;;;33.70;66.10;;;;;;1803384;78;21145;-75
2023/04/01 13:15:24;;;;;;;36.15;27.42;;;33.60;66.40;;;;;;1789458;80;21144;-76
2023/04/01 13:18:14;;;;;;;42.75;27.82;;;33.60;66.50;;;;;;1793048;79;21176;-76
2023/04/01 13:20:54;;;;;;;30.20;25.80;;;33.60;66.50;;;;;;1831351;76;21381;-73
2023/04/01 13:23:45;;;;;;;33.25;26.77;;;33.50;66.20;;;;;;1803634;78;21143;-75
2023/04/01 13:26:37;;;;;;;31.95;26.20;;;33.60;66.20;;;;;;1821004;78;21244;-74
2023/04/01 13:29:17;;;;;;;30.62;26.93;;;33.50;66.30;;;;;;1859995;76;21248;-75
2023/04/01 13:32:23;;;;;;;30.05;26.12;;;33.60;66.70;;;;;;1852040;76;21115;-75
2023/04/01 13:35:07;;;;;;;30.43;26.05;;;33.40;67.00;;;;;;1836617;77;21657;-75
2023/04/01 13:37:55;;;;;;;30.17;25.77;;;33.40;67.40;;;;;;1844691;76;21107;-75
2023/04/01 13:40:39;;;;;;;34.78;26.75;;;33.40;67.60;;;;;;1851632;76;21840;-76
2023/04/01 13:43:20;;;;;;;29.63;24.12;;;33.40;67.60;;;;;;1843486;76;21142;-75
2023/04/01 13:46:06;;;;;;;27.30;24.37;;;33.40;66.70;;;;;;1839120;77;21440;-75